Time;durP1;ratioP1;P1;durP2;ratioP2;P2;SDS_P1;SDS_P2;PMS_P1;PMS_P2;Temp;Humidity;BMP_temperature;BMP_pressure;BME280_temperature;BME280_humidity;BME280_pressure;Samples;Min_cycle;Max_cycle;Signal;HPM_P1;HPM_P2
2021/01/07 00:03:11;;;;;;;5.33;3.70;;;20.00;28.90;;;;;;8355071;28;20048;-55
2021/01/07 00:07:11;;;;;;;6.67;4.33;;;20.00;28.90;;;;;;8341178;28;20030;-56
2021/01/07 00:11:12;;;;;;;4.70;3.60;;;20.00;28.90;;;;;;8328592;28;20551;-56
2021/01/07 00:15:13;;;;;;;4.80;3.50;;;19.90;28.90;;;;;;8355085;28;20045;-56
2021/01/07 00:19:14;;;;;;;7.00;4.00;;;19.90;28.90;;;;;;8357359;28;20533;-56
2021/01/07 00:23:14;;;;;;;6.33;4.10;;;19.90;28.90;;;;;;8356920;28;20039;-55
2021/01/07 00:27:15;;;;;;;6.43;4.23;;;19.90;28.90;;;;;;8359615;28;20041;-55
2021/01/07 00:31:16;;;;;;;5.77;4.40;;;19.90;28.90;;;;;;8357157;28;20107;-55
2021/01/07 00:35:16;;;;;;;5.40;4.10;;;19.90;28.90;;;;;;8330628;28;20033;-55
2021/01/07 00:44:32;;;;;;;7.60;4.20;;;19.90;28.90;;;;;;8309392;28;20521;-56
2021/01/07 00:48:32;;;;;;;6.60;4.13;;;19.80;28.90;;;;;;8353507;28;20517;-57
2021/01/07 00:52:33;;;;;;;6.50;4.37;;;19.80;28.90;;;;;;8361115;28;20039;-56
2021/01/07 00:56:39;;;;;;;6.13;4.70;;;19.90;28.90;;;;;;8354313;28;20056;-56
2021/01/07 01:00:40;;;;;;;6.82;4.47;;;19.80;28.90;;;;;;8344573;28;20045;-57
2021/01/07 01:04:40;;;;;;;5.17;3.87;;;19.80;29.00;;;;;;8343578;28;20051;-55
2021/01/07 01:08:41;;;;;;;6.83;4.00;;;19.80;28.90;;;;;;8358850;28;20033;-54
2021/01/07 01:12:41;;;;;;;5.47;4.03;;;19.80;29.00;;;;;;8329701;28;20442;-55
2021/01/07 01:16:43;;;;;;;6.90;4.47;;;19.80;29.00;;;;;;8349445;28;20102;-56
2021/01/07 01:20:43;;;;;;;7.60;5.00;;;19.80;29.00;;;;;;8331940;28;20026;-55
2021/01/07 01:24:44;;;;;;;5.50;4.53;;;19.70;28.90;;;;;;8342077;28;20028;-56
2021/01/07 01:28:44;;;;;;;6.53;4.17;;;19.70;28.90;;;;;;8364976;28;20128;-55
2021/01/07 01:32:45;;;;;;;5.90;3.90;;;19.70;29.10;;;;;;8335269;28;20501;-55
2021/01/07 01:36:45;;;;;;;5.43;4.10;;;19.70;29.00;;;;;;8361675;28;20045;-55
2021/01/07 01:40:46;;;;;;;7.33;4.67;;;19.70;29.00;;;;;;8360821;28;20044;-55
2021/01/07 01:44:47;;;;;;;4.93;4.13;;;19.70;29.00;;;;;;8363850;28;20060;-55
2021/01/07 01:48:49;;;;;;;6.60;4.43;;;19.70;29.00;;;;;;8361278;28;20278;-54
2021/01/07 01:52:50;;;;;;;6.40;4.43;;;19.70;29.00;;;;;;8361693;28;20029;-55
2021/01/07 01:56:54;;;;;;;8.40;4.10;;;19.60;29.00;;;;;;8329635;28;20073;-53
2021/01/07 02:00:54;;;;;;;5.35;4.10;;;19.70;29.00;;;;;;8345653;28;20033;-55
2021/01/07 02:04:55;;;;;;;6.00;3.93;;;19.70;29.00;;;;;;8338924;28;20033;-55
2021/01/07 02:08:56;;;;;;;5.93;4.30;;;19.60;29.00;;;;;;8356004;28;20037;-55
2021/01/07 02:12:58;;;;;;;6.38;4.15;;;19.60;29.00;;;;;;8360443;28;20125;-54
2021/01/07 02:16:58;;;;;;;6.72;3.97;;;19.60;29.00;;;;;;8360246;28;20438;-56
2021/01/07 02:21:00;;;;;;;6.13;4.17;;;19.60;29.00;;;;;;8331083;28;20103;-55
2021/01/07 02:25:03;;;;;;;6.60;4.50;;;19.60;29.00;;;;;;8341228;28;20124;-57
2021/01/07 02:29:04;;;;;;;5.53;4.15;;;19.60;29.00;;;;;;8360014;28;20036;-55
2021/01/07 02:33:04;;;;;;;6.07;4.45;;;19.60;29.00;;;;;;8326348;28;20029;-56
2021/01/07 02:37:06;;;;;;;6.22;4.25;;;19.60;29.00;;;;;;8330962;28;20088;-56
2021/01/07 02:41:08;;;;;;;6.32;3.88;;;19.60;29.00;;;;;;8349831;28;20033;-55
2021/01/07 02:45:10;;;;;;;6.00;4.32;;;19.60;29.00;;;;;;8333111;28;20052;-55
2021/01/07 02:49:11;;;;;;;6.18;4.38;;;19.50;29.00;;;;;;8359169;28;20033;-56
2021/01/07 02:53:11;;;;;;;6.93;4.73;;;19.50;29.00;;;;;;8334987;28;20072;-56
2021/01/07 02:57:12;;;;;;;5.50;4.23;;;19.50;29.00;;;;;;8328649;28;20324;-56
2021/01/07 03:01:13;;;;;;;7.65;4.68;;;19.50;29.00;;;;;;8325921;28;20283;-56
2021/01/07 03:05:14;;;;;;;7.40;4.27;;;19.50;29.00;;;;;;8325676;28;20059;-56
2021/01/07 03:09:15;;;;;;;6.05;4.75;;;19.50;29.00;;;;;;8324042;28;20383;-56
2021/01/07 03:13:16;;;;;;;6.23;4.80;;;19.50;29.00;;;;;;8330263;28;20038;-56
2021/01/07 03:17:17;;;;;;;5.88;4.57;;;19.50;29.00;;;;;;8323810;28;20312;-54
2021/01/07 03:21:18;;;;;;;7.43;5.03;;;19.50;29.00;;;;;;8325046;28;20034;-55
2021/01/07 03:25:20;;;;;;;6.32;4.28;;;19.50;29.00;;;;;;8325077;28;20425;-55
2021/01/07 03:29:21;;;;;;;5.93;3.95;;;19.50;29.00;;;;;;8328220;28;20033;-56
2021/01/07 03:33:22;;;;;;;5.47;3.92;;;19.50;29.00;;;;;;8357791;28;20482;-56
2021/01/07 03:37:23;;;;;;;6.07;4.25;;;19.50;29.00;;;;;;8340198;28;20084;-55
2021/01/07 03:41:24;;;;;;;6.35;4.45;;;19.50;29.00;;;;;;8347678;28;20033;-56
2021/01/07 03:45:25;;;;;;;5.53;4.50;;;19.50;29.00;;;;;;8324653;28;20531;-55
2021/01/07 03:49:26;;;;;;;6.03;4.35;;;19.50;29.00;;;;;;8346495;28;20060;-56
2021/01/07 03:53:26;;;;;;;8.03;4.57;;;19.50;29.00;;;;;;8355781;28;20037;-56
2021/01/07 03:57:27;;;;;;;6.37;4.33;;;19.50;29.00;;;;;;8347728;28;20285;-55
2021/01/07 04:01:28;;;;;;;5.85;4.22;;;19.50;29.10;;;;;;8324313;28;20038;-55
2021/01/07 04:05:29;;;;;;;8.60;4.00;;;19.50;29.00;;;;;;8328827;28;20034;-56
2021/01/07 04:09:30;;;;;;;7.25;4.72;;;19.50;29.00;;;;;;8347335;28;20037;-55
2021/01/07 04:13:31;;;;;;;6.03;4.93;;;19.50;29.00;;;;;;8342669;28;20119;-55
2021/01/07 04:17:32;;;;;;;6.15;4.65;;;19.50;29.00;;;;;;8353119;28;20069;-56
2021/01/07 04:21:33;;;;;;;5.93;4.28;;;19.50;29.00;;;;;;8324971;28;20030;-56
2021/01/07 04:25:34;;;;;;;6.63;4.10;;;19.50;29.00;;;;;;8346159;28;20394;-55
2021/01/07 04:29:35;;;;;;;7.47;4.68;;;19.60;28.90;;;;;;8355409;28;20147;-56
2021/01/07 04:33:36;;;;;;;6.07;4.63;;;19.60;28.90;;;;;;8356904;28;20041;-56
2021/01/07 04:37:37;;;;;;;7.13;4.63;;;19.70;28.90;;;;;;8356927;28;20417;-56
2021/01/07 04:41:38;;;;;;;6.45;4.05;;;19.70;28.80;;;;;;8332263;28;20064;-55
2021/01/07 04:45:39;;;;;;;6.85;5.10;;;19.80;28.80;;;;;;8341563;28;20041;-55
2021/01/07 04:49:41;;;;;;;6.65;4.65;;;19.80;28.80;;;;;;8363080;28;20504;-56
2021/01/07 04:53:42;;;;;;;7.53;5.47;;;19.80;28.80;;;;;;8357684;28;20790;-55
2021/01/07 04:57:43;;;;;;;6.53;4.40;;;19.80;28.80;;;;;;8346053;28;20137;-55
2021/01/07 05:01:46;;;;;;;6.68;4.65;;;19.80;28.80;;;;;;8342881;28;20041;-55
2021/01/07 05:05:53;;;;;;;7.78;4.85;;;19.80;28.80;;;;;;8327882;28;20025;-54
2021/01/07 05:10:03;;;;;;;6.10;4.55;;;19.80;28.80;;;;;;8329249;28;20045;-56
2021/01/07 05:14:05;;;;;;;7.55;4.47;;;19.90;28.80;;;;;;8329374;28;20061;-55
2021/01/07 05:18:08;;;;;;;8.02;4.95;;;19.90;28.80;;;;;;8331743;28;20053;-55
2021/01/07 05:22:10;;;;;;;7.78;5.38;;;20.00;28.80;;;;;;8329406;28;20065;-56
2021/01/07 05:26:12;;;;;;;7.90;5.15;;;20.10;28.70;;;;;;8329043;28;20036;-55
2021/01/07 05:30:13;;;;;;;7.05;4.65;;;20.00;28.60;;;;;;8360000;28;20041;-55
2021/01/07 05:34:14;;;;;;;;;;;20.10;28.60;;;;;;8350339;28;20032;-55
2021/01/07 05:38:16;;;;;;;5.97;4.43;;;20.20;28.70;;;;;;8328564;28;19929;-55
2021/01/07 05:42:18;;;;;;;7.38;4.68;;;20.20;28.60;;;;;;8327077;28;20037;-55
2021/01/07 05:46:19;;;;;;;6.75;4.30;;;20.20;28.60;;;;;;8328091;28;20129;-56
2021/01/07 05:50:20;;;;;;;5.95;4.35;;;20.30;28.60;;;;;;8327041;28;20037;-55
2021/01/07 05:54:21;;;;;;;;;;;20.30;28.60;;;;;;8333286;28;20025;-55
2021/01/07 05:58:24;;;;;;;8.20;4.93;;;20.30;28.60;;;;;;8327657;28;19963;-57
2021/01/07 06:02:26;;;;;;;7.13;4.65;;;20.30;28.60;;;;;;8350971;28;20385;-57
2021/01/07 06:06:30;;;;;;;6.47;4.72;;;20.40;28.60;;;;;;8327173;28;20021;-57
2021/01/07 06:10:32;;;;;;;6.95;4.60;;;20.40;28.50;;;;;;8331851;28;20034;-56
2021/01/07 06:14:33;;;;;;;7.30;4.85;;;20.40;28.50;;;;;;8328304;28;20030;-57
2021/01/07 06:18:34;;;;;;;6.65;4.43;;;20.40;28.50;;;;;;8349747;28;20493;-57
2021/01/07 06:22:38;;;;;;;6.95;4.55;;;20.50;28.50;;;;;;8327385;28;20034;-57
2021/01/07 06:26:45;;;;;;;7.25;4.97;;;20.50;28.50;;;;;;8325354;28;20048;-56
2021/01/07 06:30:46;;;;;;;6.40;4.75;;;20.50;28.50;;;;;;8343422;28;20115;-56
2021/01/07 06:34:49;;;;;;;;;;;20.50;28.50;;;;;;8339520;28;20060;-56
2021/01/07 06:38:52;;;;;;;6.65;4.75;;;20.50;28.50;;;;;;8329417;28;19921;-56
2021/01/07 06:42:54;;;;;;;4.75;3.95;;;20.60;28.50;;;;;;8359564;28;20033;-56
2021/01/07 06:46:55;;;;;;;6.88;4.75;;;20.60;28.50;;;;;;8341694;28;20090;-56
2021/01/07 06:50:57;;;;;;;8.25;4.88;;;20.60;28.50;;;;;;8354848;28;20079;-56
2021/01/07 06:54:58;;;;;;;6.82;4.40;;;20.60;28.50;;;;;;8344839;28;20384;-56
2021/01/07 06:59:01;;;;;;;7.13;4.80;;;20.70;28.50;;;;;;8325761;28;20144;-56
2021/01/07 07:03:10;;;;;;;6.75;4.90;;;20.70;28.50;;;;;;8324409;28;20045;-55
2021/01/07 07:07:29;;;;;;;7.70;4.53;;;20.70;28.50;;;;;;8345156;28;20504;-56
2021/01/07 07:11:34;;;;;;;7.95;4.60;;;20.70;28.50;;;;;;8356970;28;20138;-56
2021/01/07 07:15:36;;;;;;;6.68;4.45;;;20.70;28.40;;;;;;8358204;28;20039;-56
2021/01/07 07:19:38;;;;;;;6.55;4.68;;;20.70;28.50;;;;;;8338864;28;20046;-56
2021/01/07 07:23:40;;;;;;;6.82;4.85;;;20.80;28.50;;;;;;8323035;28;20038;-57
2021/01/07 07:27:48;;;;;;;7.03;4.63;;;20.80;28.80;;;;;;8329414;28;20034;-56
2021/01/07 07:31:48;;;;;;;7.10;4.68;;;20.80;28.40;;;;;;8325280;28;20061;-56
2021/01/07 07:35:50;;;;;;;8.20;4.73;;;20.80;28.40;;;;;;8323408;28;20053;-56
2021/01/07 07:39:59;;;;;;;7.60;4.63;;;20.80;28.40;;;;;;8324477;28;20041;-56
2021/01/07 07:43:59;;;;;;;6.70;4.65;;;20.90;28.40;;;;;;8329137;28;20034;-57
2021/01/07 07:48:01;;;;;;;7.53;4.90;;;20.90;28.40;;;;;;8322842;28;20441;-56
2021/01/07 07:52:01;;;;;;;;;;;20.90;28.40;;;;;;8339671;28;20504;-56
2021/01/07 07:56:03;;;;;;;8.47;5.37;;;20.90;28.40;;;;;;8357759;28;19955;-56
2021/01/07 08:00:16;;;;;;;;;;;20.90;28.40;;;;;;8349697;28;20052;-56
2021/01/07 08:04:18;;;;;;;5.38;4.30;;;20.90;28.40;;;;;;8328659;28;19917;-55
2021/01/07 08:08:27;;;;;;;8.00;4.72;;;20.90;28.40;;;;;;8347288;28;20067;-56
2021/01/07 08:12:28;;;;;;;7.90;5.13;;;20.90;28.40;;;;;;8334102;28;20071;-56
2021/01/07 08:16:28;;;;;;;6.60;5.13;;;20.90;28.40;;;;;;8340263;28;20504;-56
2021/01/07 08:20:29;;;;;;;7.38;5.07;;;20.90;28.40;;;;;;8333915;28;20398;-56
2021/01/07 08:24:30;;;;;;;5.77;4.20;;;20.90;28.40;;;;;;8330818;28;20069;-57
2021/01/07 08:28:30;;;;;;;7.77;5.50;;;20.80;28.40;;;;;;8330529;28;20387;-56
2021/01/07 08:32:40;;;;;;;7.20;5.00;;;20.80;28.40;;;;;;8355966;28;20037;-56
2021/01/07 08:36:42;;;;;;;7.70;5.05;;;20.70;28.40;;;;;;8363520;28;20076;-56
2021/01/07 08:40:42;;;;;;;7.65;4.53;;;20.70;28.50;;;;;;8367580;28;20079;-56
2021/01/07 08:44:44;;;;;;;6.43;4.68;;;20.70;28.50;;;;;;8357687;28;20063;-56
2021/01/07 08:49:00;;;;;;;6.32;4.80;;;20.60;28.50;;;;;;8342377;28;20041;-55
2021/01/07 08:53:08;;;;;;;6.85;5.18;;;20.60;28.50;;;;;;8340162;28;20037;-56
2021/01/07 08:57:12;;;;;;;6.47;4.38;;;20.60;28.50;;;;;;8330273;28;20049;-56
2021/01/07 09:01:13;;;;;;;7.07;4.63;;;20.60;28.60;;;;;;8332738;28;20048;-56
2021/01/07 09:05:18;;;;;;;6.18;4.63;;;20.50;28.60;;;;;;8329564;28;20033;-56
2021/01/07 09:09:20;;;;;;;7.00;5.00;;;20.50;28.60;;;;;;8360982;28;20490;-56
2021/01/07 09:13:22;;;;;;;5.82;4.20;;;20.50;28.60;;;;;;8362228;28;20032;-56
2021/01/07 09:17:57;;;;;;;7.03;5.25;;;20.40;28.60;;;;;;8339304;28;20482;-56
2021/01/07 09:22:03;;;;;;;5.18;4.22;;;20.40;28.60;;;;;;8327004;28;20517;-56
2021/01/07 09:26:04;;;;;;;5.88;4.78;;;20.40;28.60;;;;;;8328700;28;20086;-56
2021/01/07 09:30:05;;;;;;;7.20;4.43;;;20.30;28.60;;;;;;8351284;28;20433;-56
2021/01/07 09:34:06;;;;;;;;;;;20.30;28.60;;;;;;8344191;28;20508;-56
2021/01/07 09:38:07;;;;;;;6.70;4.53;;;20.30;28.60;;;;;;8342465;28;19928;-56
2021/01/07 09:42:10;;;;;;;6.03;4.47;;;20.30;28.60;;;;;;8333662;28;20029;-56
2021/01/07 09:46:11;;;;;;;4.97;4.00;;;20.30;28.70;;;;;;8361133;28;20033;-56
2021/01/07 09:50:13;;;;;;;6.55;5.05;;;20.20;28.60;;;;;;8360815;28;20490;-56
2021/01/07 09:54:15;;;;;;;6.25;4.75;;;20.20;28.70;;;;;;8331136;28;20398;-56
2021/01/07 09:58:16;;;;;;;7.03;4.40;;;20.20;28.70;;;;;;8327749;28;20132;-57
2021/01/07 10:02:17;;;;;;;6.18;4.47;;;20.10;28.80;;;;;;8350572;28;20043;-55
2021/01/07 10:06:18;;;;;;;7.18;4.43;;;20.10;28.80;;;;;;8327777;28;20041;-55
2021/01/07 10:10:19;;;;;;;5.47;3.90;;;20.10;28.80;;;;;;8344416;28;20417;-57
2021/01/07 10:14:21;;;;;;;6.60;4.88;;;20.00;28.80;;;;;;8337921;28;20040;-55
2021/01/07 10:18:22;;;;;;;7.10;4.80;;;20.00;28.80;;;;;;8336179;28;20132;-55
2021/01/07 10:22:25;;;;;;;7.50;4.35;;;20.00;28.80;;;;;;8360143;28;20100;-56
2021/01/07 10:26:26;;;;;;;5.57;4.18;;;20.00;28.90;;;;;;8356897;28;20474;-56
2021/01/07 10:30:27;;;;;;;5.63;4.45;;;20.00;28.90;;;;;;8341026;28;20039;-56
2021/01/07 10:34:30;;;;;;;6.25;4.05;;;20.00;28.90;;;;;;8359682;28;20041;-57
2021/01/07 10:38:31;;;;;;;6.28;4.60;;;20.00;29.00;;;;;;8357993;28;20116;-56
2021/01/07 10:42:32;;;;;;;6.35;4.20;;;20.00;28.90;;;;;;8348131;28;20048;-56
2021/01/07 10:46:37;;;;;;;4.53;3.83;;;19.90;28.90;;;;;;8345034;28;20491;-56
2021/01/07 10:50:39;;;;;;;5.32;4.05;;;20.00;28.90;;;;;;8361897;28;20473;-56
2021/01/07 10:54:58;;;;;;;5.97;4.28;;;20.00;28.90;;;;;;8359260;28;20041;-56
2021/01/07 10:59:15;;;;;;;6.13;4.13;;;20.00;28.90;;;;;;8358844;28;20044;-56
2021/01/07 11:03:37;;;;;;;5.35;4.15;;;20.00;28.90;;;;;;8324659;28;20151;-56
2021/01/07 11:07:56;;;;;;;5.70;4.18;;;20.00;28.90;;;;;;8325660;28;20099;-56
2021/01/07 11:12:02;;;;;;;5.97;4.22;;;20.00;28.90;;;;;;8333984;28;20036;-57
2021/01/07 11:16:05;;;;;;;6.93;4.45;;;20.00;28.90;;;;;;8358323;28;20445;-56
2021/01/07 11:20:07;;;;;;;5.65;4.40;;;20.00;28.80;;;;;;8358145;28;20135;-55
2021/01/07 11:24:09;;;;;;;6.25;4.00;;;20.00;28.80;;;;;;8349656;28;20033;-56
2021/01/07 11:28:10;;;;;;;6.15;3.90;;;20.00;28.80;;;;;;8325133;28;20125;-56
2021/01/07 11:32:12;;;;;;;7.18;4.28;;;20.00;28.80;;;;;;8353454;28;20040;-56
2021/01/07 11:36:22;;;;;;;5.03;3.90;;;20.00;28.80;;;;;;8330840;28;20069;-56
2021/01/07 11:40:34;;;;;;;4.70;3.92;;;19.90;28.80;;;;;;8340845;28;20045;-56
2021/01/07 11:44:53;;;;;;;4.97;3.70;;;19.90;28.80;;;;;;8322609;28;20112;-56
2021/01/07 11:49:02;;;;;;;5.32;3.72;;;19.90;28.80;;;;;;8338296;28;20045;-56
2021/01/07 11:53:05;;;;;;;6.32;4.15;;;19.90;28.80;;;;;;8361682;28;20052;-55
2021/01/07 11:57:08;;;;;;;6.60;4.20;;;19.90;28.80;;;;;;8348210;28;20052;-56
2021/01/07 12:01:09;;;;;;;5.32;3.80;;;19.90;28.80;;;;;;8324229;28;20479;-56
2021/01/07 12:05:17;;;;;;;4.60;3.58;;;19.90;28.80;;;;;;8324306;28;20434;-56
2021/01/07 12:09:28;;;;;;;5.72;3.88;;;19.90;28.80;;;;;;8326981;28;20041;-56
2021/01/07 12:13:55;;;;;;;5.60;4.07;;;19.80;28.80;;;;;;8324061;28;20077;-57
2021/01/07 12:17:56;;;;;;;7.15;4.65;;;19.80;28.80;;;;;;8352904;28;20075;-56
2021/01/07 12:21:59;;;;;;;5.00;3.70;;;19.80;28.80;;;;;;8357257;28;20120;-56
2021/01/07 12:26:00;;;;;;;5.93;4.03;;;19.80;28.70;;;;;;8357322;28;20037;-56
2021/01/07 12:30:04;;;;;;;4.68;3.92;;;19.80;28.80;;;;;;8359672;28;20393;-57
2021/01/07 12:34:26;;;;;;;5.80;4.00;;;19.80;28.90;;;;;;8357115;28;20044;-56
2021/01/07 12:38:58;;;;;;;5.88;4.85;;;19.80;28.90;;;;;;8354680;28;20049;-56
2021/01/07 12:42:59;;;;;;;6.75;4.15;;;19.80;28.90;;;;;;8356683;28;20068;-55
2021/01/07 12:46:59;;;;;;;6.07;4.00;;;19.70;28.90;;;;;;8356619;28;20087;-56
2021/01/07 12:51:00;;;;;;;6.80;4.83;;;19.80;28.90;;;;;;8334588;28;20037;-56
2021/01/07 12:55:02;;;;;;;6.70;4.10;;;19.80;28.90;;;;;;8327013;28;20037;-56
2021/01/07 12:59:09;;;;;;;4.97;3.47;;;19.80;28.90;;;;;;8345463;28;20508;-56
2021/01/07 13:03:45;;;;;;;6.43;3.88;;;19.80;28.90;;;;;;8323372;28;20033;-56
2021/01/07 13:07:48;;;;;;;5.93;4.10;;;19.80;28.90;;;;;;8349970;28;20116;-57
2021/01/07 13:11:49;;;;;;;5.03;3.85;;;19.80;28.90;;;;;;8335560;28;20494;-56
2021/01/07 13:15:50;;;;;;;5.30;3.97;;;19.80;28.90;;;;;;8329076;28;20075;-57
2021/01/07 13:19:53;;;;;;;5.07;4.00;;;19.80;28.80;;;;;;8328910;28;20071;-56
2021/01/07 13:23:54;;;;;;;5.90;4.20;;;19.80;28.80;;;;;;8327354;28;20042;-56
2021/01/07 13:27:54;;;;;;;6.00;3.90;;;19.80;28.80;;;;;;8329095;28;20030;-57
2021/01/07 13:31:55;;;;;;;5.53;4.05;;;19.80;28.80;;;;;;8355103;28;20036;-56
2021/01/07 13:35:59;;;;;;;5.60;3.83;;;19.80;28.80;;;;;;8359961;28;20041;-57
2021/01/07 13:40:00;;;;;;;4.90;3.92;;;19.80;28.80;;;;;;8361182;28;20048;-56
2021/01/07 13:44:06;;;;;;;5.55;4.35;;;19.80;28.80;;;;;;8361276;28;20059;-57
2021/01/07 13:48:16;;;;;;;5.95;4.20;;;19.80;28.80;;;;;;8363517;28;20099;-56
2021/01/07 13:52:19;;;;;;;6.03;4.18;;;19.80;28.80;;;;;;8344604;28;20026;-56
2021/01/07 13:56:20;;;;;;;6.40;3.78;;;19.80;28.80;;;;;;8326074;28;20037;-56
2021/01/07 14:00:21;;;;;;;4.75;3.53;;;19.80;28.80;;;;;;8327826;28;20052;-57
2021/01/07 14:04:22;;;;;;;5.18;3.88;;;19.80;28.80;;;;;;8326138;28;20372;-57
2021/01/07 14:08:29;;;;;;;6.53;3.85;;;19.80;28.80;;;;;;8330532;28;20517;-56
2021/01/07 14:12:31;;;;;;;6.95;4.20;;;19.80;28.80;;;;;;8327669;28;20061;-56
2021/01/07 14:16:33;;;;;;;4.70;3.63;;;19.80;28.80;;;;;;8326786;28;20367;-56
2021/01/07 14:20:34;;;;;;;6.10;3.78;;;19.80;28.80;;;;;;8325795;28;20022;-57
2021/01/07 14:24:35;;;;;;;4.17;3.43;;;19.70;28.80;;;;;;8331961;28;20548;-57
2021/01/07 14:28:42;;;;;;;5.32;3.72;;;19.70;29.30;;;;;;8327157;28;20042;-57
2021/01/07 14:32:45;;;;;;;5.82;3.53;;;19.70;28.90;;;;;;8353539;28;20037;-55
2021/01/07 14:36:45;;;;;;;5.50;3.47;;;19.70;28.90;;;;;;8347402;28;20109;-56
2021/01/07 14:40:47;;;;;;;4.43;3.63;;;19.60;28.80;;;;;;8326527;28;20131;-57
2021/01/07 14:44:48;;;;;;;;;;;19.60;28.90;;;;;;8329652;28;20041;-57
2021/01/07 14:48:59;;;;;;;5.57;3.80;;;19.60;28.90;;;;;;8326161;28;20021;-57
2021/01/07 14:53:04;;;;;;;5.22;3.80;;;19.60;29.00;;;;;;8325910;28;20030;-53
2021/01/07 14:57:30;;;;;;;15.43;9.43;;;19.60;29.00;;;;;;8320663;28;20073;-57
2021/01/07 15:01:36;;;;;;;8.57;5.63;;;19.20;28.50;;;;;;8327199;28;20478;-57
2021/01/07 15:05:41;;;;;;;8.60;5.43;;;19.10;29.50;;;;;;8356981;28;20132;-55
2021/01/07 15:09:49;;;;;;;8.70;5.47;;;19.20;29.50;;;;;;8325885;28;20045;-54
2021/01/07 15:13:59;;;;;;;10.32;6.15;;;19.30;29.70;;;;;;8323025;28;20049;-58
2021/01/07 15:18:08;;;;;;;7.97;4.63;;;19.40;30.00;;;;;;8363538;28;20055;-58
2021/01/07 15:22:28;;;;;;;9.27;4.85;;;19.50;30.40;;;;;;8364731;28;20078;-57
2021/01/07 15:27:00;;;;;;;8.25;4.97;;;19.70;30.40;;;;;;8355995;28;20393;-56
2021/01/07 15:31:11;;;;;;;8.18;4.68;;;19.70;30.30;;;;;;8357068;28;20064;-58
2021/01/07 15:35:11;;;;;;;7.70;4.93;;;19.70;30.20;;;;;;8351592;28;20072;-57
2021/01/07 15:39:18;;;;;;;7.53;5.22;;;19.80;30.10;;;;;;8325692;28;20052;-57
2021/01/07 15:43:46;;;;;;;7.25;4.68;;;19.80;30.00;;;;;;8352128;28;20029;-57
2021/01/07 15:48:14;;;;;;;8.45;4.55;;;19.90;30.00;;;;;;8333837;28;20032;-59
2021/01/07 15:52:21;;;;;;;7.07;4.78;;;19.90;30.00;;;;;;8323043;28;20494;-58
2021/01/07 15:56:34;;;;;;;6.50;4.63;;;19.90;29.90;;;;;;8317388;28;20060;-57
2021/01/07 16:00:42;;;;;;;7.22;4.30;;;20.00;29.90;;;;;;8318420;28;20057;-57
2021/01/07 16:05:00;;;;;;;6.57;4.53;;;20.00;29.90;;;;;;8318519;28;20421;-56
2021/01/07 16:09:01;;;;;;;10.23;4.50;;;20.00;29.80;;;;;;8316965;28;20485;-58
2021/01/07 16:13:03;;;;;;;7.03;4.37;;;20.00;29.80;;;;;;8322686;28;20048;-58
2021/01/07 16:17:04;;;;;;;;;;;20.00;29.80;;;;;;8318668;28;20478;-58
2021/01/07 16:21:15;;;;;;;6.57;4.50;;;20.10;29.70;;;;;;8316293;28;19924;-58
2021/01/07 16:25:27;;;;;;;6.43;4.50;;;20.10;29.60;;;;;;8344160;28;20116;-59
2021/01/07 16:29:29;;;;;;;6.38;4.60;;;20.20;29.60;;;;;;8352041;28;20406;-59
2021/01/07 16:33:31;;;;;;;6.68;4.60;;;20.30;29.60;;;;;;8318541;28;20041;-58
2021/01/07 16:37:32;;;;;;;8.65;4.60;;;20.30;29.50;;;;;;8318481;28;20144;-58
2021/01/07 16:41:35;;;;;;;6.00;4.22;;;20.40;29.60;;;;;;8322730;28;20083;-57
2021/01/07 16:45:36;;;;;;;6.50;4.93;;;20.40;29.50;;;;;;8324404;28;20041;-57
2021/01/07 16:49:36;;;;;;;5.77;3.93;;;20.50;29.50;;;;;;8329246;28;20145;-57
2021/01/07 16:53:37;;;;;;;7.37;4.57;;;20.50;29.50;;;;;;8322420;28;20454;-57
2021/01/07 16:57:38;;;;;;;8.63;4.43;;;20.60;29.50;;;;;;8323989;28;20049;-58
2021/01/07 17:01:38;;;;;;;5.85;4.47;;;20.60;29.40;;;;;;8334594;28;20048;-58
2021/01/07 17:05:39;;;;;;;6.87;4.63;;;20.60;29.40;;;;;;8334918;28;20118;-58
2021/01/07 17:09:39;;;;;;;5.20;4.17;;;20.60;29.40;;;;;;8345016;28;20044;-58
2021/01/07 17:13:40;;;;;;;6.37;4.37;;;20.70;29.40;;;;;;8323825;28;20046;-58
2021/01/07 17:17:40;;;;;;;5.93;4.10;;;20.70;29.40;;;;;;8321718;28;20494;-58
2021/01/07 17:21:41;;;;;;;5.27;4.30;;;20.70;29.40;;;;;;8336258;28;20563;-58
2021/01/07 17:25:45;;;;;;;6.40;4.07;;;20.80;29.40;;;;;;8358651;28;20045;-58
2021/01/07 17:29:45;;;;;;;5.50;4.00;;;20.80;29.40;;;;;;8378932;28;20370;-57
2021/01/07 17:33:46;;;;;;;6.10;4.47;;;20.80;29.40;;;;;;8380669;28;20033;-59
2021/01/07 17:37:46;;;;;;;7.43;4.83;;;20.80;29.40;;;;;;8361391;28;20111;-58
2021/01/07 17:41:47;;;;;;;6.57;4.30;;;20.90;29.30;;;;;;8363618;28;20082;-57
2021/01/07 17:45:47;;;;;;;6.90;4.10;;;20.90;29.30;;;;;;8360722;28;20123;-58
2021/01/07 17:49:48;;;;;;;5.43;4.23;;;20.90;29.30;;;;;;8361323;28;20041;-58
2021/01/07 17:53:48;;;;;;;6.10;4.03;;;20.90;29.20;;;;;;8330221;28;20151;-58
2021/01/07 17:57:50;;;;;;;6.60;4.50;;;20.90;29.20;;;;;;8332407;28;20045;-58
2021/01/07 18:01:51;;;;;;;5.82;4.15;;;20.90;29.20;;;;;;8349052;28;20152;-58
2021/01/07 18:05:51;;;;;;;5.50;4.03;;;20.90;29.10;;;;;;8359006;28;20498;-59
2021/01/07 18:09:52;;;;;;;5.83;4.17;;;20.90;29.10;;;;;;8347435;28;20041;-58
2021/01/07 18:13:53;;;;;;;5.72;4.20;;;20.90;29.10;;;;;;8327493;28;20034;-58
2021/01/07 18:17:54;;;;;;;6.47;4.23;;;20.90;29.10;;;;;;8360105;28;20087;-58
2021/01/07 18:21:55;;;;;;;7.05;4.60;;;20.90;29.00;;;;;;8360077;28;20037;-59
2021/01/07 18:25:56;;;;;;;;;;;20.90;29.00;;;;;;8337368;28;20037;-58
2021/01/07 18:29:57;;;;;;;6.20;4.17;;;21.00;29.00;;;;;;8355528;28;19919;-58
2021/01/07 18:33:58;;;;;;;5.90;4.55;;;21.00;29.00;;;;;;8350468;28;20445;-58
2021/01/07 18:37:58;;;;;;;5.73;4.20;;;21.00;29.00;;;;;;8348957;28;20410;-58
2021/01/07 18:41:59;;;;;;;5.23;4.30;;;21.00;28.90;;;;;;8352257;28;20040;-57
2021/01/07 18:46:00;;;;;;;4.63;3.92;;;21.00;28.90;;;;;;8340582;28;20137;-59
2021/01/07 18:50:01;;;;;;;6.85;4.47;;;21.00;28.90;;;;;;8341283;28;20058;-59
2021/01/07 18:54:02;;;;;;;5.25;4.20;;;21.00;28.90;;;;;;8349572;28;20372;-58
2021/01/07 18:58:04;;;;;;;;;;;21.10;28.90;;;;;;8326293;28;20057;-59
2021/01/07 19:02:10;;;;;;;7.20;4.43;;;21.10;28.90;;;;;;8325437;28;19917;-59
2021/01/07 19:06:12;;;;;;;6.28;4.32;;;21.10;28.90;;;;;;8349336;28;20437;-58
2021/01/07 19:10:13;;;;;;;7.30;4.68;;;21.10;28.80;;;;;;8330355;28;20550;-59
2021/01/07 19:14:13;;;;;;;6.07;4.10;;;21.10;28.80;;;;;;8325739;28;20040;-58
2021/01/07 19:18:14;;;;;;;6.67;4.70;;;21.10;28.80;;;;;;8356877;28;20041;-59
2021/01/07 19:22:15;;;;;;;5.97;3.70;;;21.10;28.80;;;;;;8341923;28;20124;-60
2021/01/07 19:26:19;;;;;;;5.93;4.27;;;21.10;28.80;;;;;;8330211;28;20053;-59
2021/01/07 19:30:20;;;;;;;5.82;4.50;;;21.10;28.80;;;;;;8324050;28;20066;-59
2021/01/07 19:34:21;;;;;;;6.60;4.63;;;21.10;28.80;;;;;;8341980;28;20040;-59
2021/01/07 19:38:22;;;;;;;6.03;4.63;;;21.10;28.80;;;;;;8355477;28;20048;-59
2021/01/07 19:42:22;;;;;;;4.32;3.75;;;21.10;28.80;;;;;;8324837;28;20087;-59
2021/01/07 19:46:23;;;;;;;5.30;4.20;;;21.10;28.80;;;;;;8346643;28;20044;-59
2021/01/07 19:50:24;;;;;;;5.97;4.43;;;21.10;28.80;;;;;;8330282;28;20041;-59
2021/01/07 19:54:25;;;;;;;5.50;4.28;;;21.10;28.80;;;;;;8334264;28;20044;-59
2021/01/07 19:58:26;;;;;;;5.57;4.30;;;21.20;28.80;;;;;;8357351;28;20157;-59
2021/01/07 20:02:26;;;;;;;5.67;4.33;;;21.20;28.80;;;;;;8333897;28;20045;-59
2021/01/07 20:06:27;;;;;;;7.73;4.53;;;21.10;28.70;;;;;;8334147;28;20071;-59
2021/01/07 20:10:31;;;;;;;5.40;3.83;;;21.10;28.70;;;;;;8357322;28;20175;-59
2021/01/07 20:14:31;;;;;;;5.00;4.07;;;21.20;28.70;;;;;;8335927;28;20105;-59
2021/01/07 20:18:32;;;;;;;4.97;3.90;;;21.20;28.80;;;;;;8354680;28;20099;-59
2021/01/07 20:22:35;;;;;;;4.47;3.53;;;21.20;28.70;;;;;;8334380;28;20129;-59
2021/01/07 20:26:38;;;;;;;5.05;3.88;;;21.20;28.70;;;;;;8329473;28;20478;-59
2021/01/07 20:30:39;;;;;;;5.43;4.32;;;21.20;28.70;;;;;;8330828;28;20410;-59
2021/01/07 20:34:39;;;;;;;5.90;4.37;;;21.20;28.70;;;;;;8330372;28;20057;-59
2021/01/07 20:38:40;;;;;;;6.47;3.73;;;21.20;28.70;;;;;;8333235;28;20033;-59
2021/01/07 20:42:40;;;;;;;5.47;4.13;;;21.20;28.70;;;;;;8330526;28;20448;-59
2021/01/07 20:46:41;;;;;;;6.20;4.60;;;21.20;28.70;;;;;;8330744;28;20029;-59
2021/01/07 20:50:41;;;;;;;6.33;4.63;;;21.20;28.70;;;;;;8332051;28;20115;-59
2021/01/07 20:54:42;;;;;;;4.50;3.80;;;21.20;28.70;;;;;;8367221;28;20044;-59
2021/01/07 20:58:43;;;;;;;5.10;3.97;;;21.20;28.70;;;;;;8342907;28;20498;-59
2021/01/07 21:02:43;;;;;;;5.00;4.10;;;21.30;28.70;;;;;;8328458;28;20099;-59
2021/01/07 21:06:44;;;;;;;5.53;3.67;;;21.30;28.70;;;;;;8341800;28;20033;-59
2021/01/07 21:10:45;;;;;;;6.33;4.07;;;21.20;28.60;;;;;;8342534;28;20084;-59
2021/01/07 21:14:45;;;;;;;5.50;3.80;;;21.20;28.70;;;;;;8336198;28;20051;-59
2021/01/07 21:18:46;;;;;;;5.50;3.17;;;21.30;28.60;;;;;;8362122;28;20057;-59